DTMB/MIR METAR and TAF weather

Enter ICAO airport designator
Station Type Date Time Source
DTMB METAR 2020/08/11 01:00 UTC NOAA

DTMB 110100Z 22002KT CAVOK 25/24 Q1015 NOSIG


Station Type Date Time Source
DTMB Decoded METAR 2020/08/11 01:00 UTC NOAA

Habib Bourguiba , Tunisia (DTMB) 35-46N 010-45E
Aug 10, 2020 - 09:00 PM EDT / 2020.08.11 0100 UTC
Wind: from the SW (220 degrees) at 2 MPH (2 KT):0
Visibility: greater than 7 mile(s):0
Temperature: 77 F (25 C)
Dew Point: 75 F (24 C)
Relative Humidity: 94%
Pressure (altimeter): 29.97 in. Hg (1015 hPa)
ob: DTMB 110100Z 22002KT CAVOK 25/24 Q1015 NOSIG
cycle: 1

Station Type Date Time Source
DTMB TAF 2020/08/10 18:24 UTC NOAA

TAF TAF DTMB 101700Z 1018/1118 10005KT CAVOK PROB40
TEMPO 1102/1106 3000 BR
BECMG 1109/1111 08015KT

Example: see airport list